Time;durP1;ratioP1;P1;durP2;ratioP2;P2;SDS_P1;SDS_P2;PMS_P1;PMS_P2;Temp;Humidity;BMP_temperature;BMP_pressure;BME280_temperature;BME280_humidity;BME280_pressure;Samples;Min_cycle;Max_cycle;Signal;HPM_P1;HPM_P2
2022/07/26 00:00:53;;;;;;;12.10;10.15;;;;;;;20.67;71.36;99076.97;5053314;28;20029;-59
2022/07/26 00:03:18;;;;;;;12.02;9.90;;;;;;;20.63;71.22;99073.00;5053273;28;20067;-60
2022/07/26 00:05:44;;;;;;;11.68;9.85;;;;;;;;;;5053475;28;20203;-61
2022/07/26 00:08:10;;;;;;;12.38;9.77;;;;;;;20.61;71.54;99080.53;5052108;28;20045;-59
2022/07/26 00:10:41;;;;;;;11.85;10.27;;;;;;;20.65;71.62;99085.34;5032978;28;20038;-59
2022/07/26 00:13:07;;;;;;;12.90;10.70;;;;;;;20.58;71.87;99084.50;5032901;28;20043;-58
2022/07/26 00:15:33;;;;;;;12.85;10.52;;;;;;;20.58;71.87;99089.94;5040824;28;20040;-59
2022/07/26 00:17:58;;;;;;;13.27;9.88;;;;;;;20.56;71.90;99080.31;5052682;28;20044;-59
2022/07/26 00:20:24;;;;;;;13.00;10.43;;;;;;;20.54;72.05;99088.66;5033806;28;20457;-59
2022/07/26 00:22:49;;;;;;;12.85;10.38;;;;;;;20.50;72.03;99085.56;5033210;28;20048;-59
2022/07/26 00:25:15;;;;;;;13.15;11.15;;;;;;;20.51;72.26;99092.66;5032889;28;20033;-58
2022/07/26 00:27:40;;;;;;;11.98;10.77;;;;;;;20.50;72.02;99082.81;5033277;28;20044;-59
2022/07/26 00:30:08;;;;;;;11.63;10.27;;;;;;;20.48;72.29;99092.22;5033226;28;20111;-58
2022/07/26 00:32:34;;;;;;;13.13;10.57;;;;;;;20.45;72.64;99084.50;5050851;28;20032;-57
2022/07/26 00:34:59;;;;;;;13.23;10.00;;;;;;;20.45;72.52;99085.31;5052826;28;20029;-59
2022/07/26 00:37:25;;;;;;;11.68;10.48;;;;;;;20.45;72.44;99077.16;5040369;28;20104;-58
2022/07/26 00:39:50;;;;;;;12.70;10.82;;;;;;;20.41;72.98;99086.78;5043008;28;20116;-61
2022/07/26 00:42:16;;;;;;;11.63;10.40;;;;;;;20.39;73.03;99078.00;5052865;28;20833;-58
2022/07/26 00:44:44;;;;;;;16.10;11.10;;;;;;;20.38;73.21;99084.47;5052775;28;20055;-59
2022/07/26 00:47:10;;;;;;;15.90;11.32;;;;;;;20.35;73.25;99084.88;5031652;28;20034;-57
2022/07/26 00:49:35;;;;;;;14.75;12.10;;;;;;;20.33;73.18;99081.53;5032668;28;20095;-60
2022/07/26 00:52:04;;;;;;;14.07;10.70;;;;;;;20.26;73.23;99076.09;5032777;28;20442;-59
2022/07/26 00:54:30;;;;;;;14.45;10.45;;;;;;;20.27;73.14;99076.94;5032470;28;20082;-60
2022/07/26 00:56:55;;;;;;;21.17;16.80;;;;;;;20.26;73.67;99073.38;5032996;28;20060;-59
2022/07/26 00:59:21;;;;;;;22.50;14.80;;;;;;;20.28;73.47;99074.00;5038477;28;20036;-60
2022/07/26 01:01:46;;;;;;;16.27;13.95;;;;;;;20.28;73.50;99067.72;5052163;28;20033;-59
2022/07/26 01:04:12;;;;;;;16.83;12.43;;;;;;;20.27;73.71;99068.78;5038637;28;20059;-59
2022/07/26 01:06:38;;;;;;;16.25;14.32;;;;;;;20.26;73.66;99065.22;5032673;28;20508;-59
2022/07/26 01:09:04;;;;;;;13.70;10.60;;;;;;;20.25;73.84;99068.13;5032908;28;20492;-60
2022/07/26 01:11:30;;;;;;;21.48;14.20;;;;;;;20.11;73.73;99053.66;5031995;28;20108;-60
2022/07/26 01:13:56;;;;;;;19.83;14.48;;;;;;;20.23;73.86;99066.44;5032717;28;20523;-59
2022/07/26 01:16:21;;;;;;;13.73;10.73;;;;;;;20.23;74.12;99071.88;5032222;28;20161;-57
2022/07/26 01:18:47;;;;;;;15.88;11.45;;;;;;;20.18;73.77;99057.25;5038724;28;20094;-58
2022/07/26 01:21:12;;;;;;;15.52;11.15;;;;;;;20.06;74.07;99046.16;5050468;28;20162;-58
2022/07/26 01:23:38;;;;;;;17.83;13.00;;;;;;;20.17;74.20;99063.75;5030875;28;20048;-59
2022/07/26 01:26:05;;;;;;;17.52;12.25;;;;;;;20.20;74.14;99071.47;5032325;28;20076;-60
2022/07/26 01:28:36;;;;;;;20.35;15.38;;;;;;;20.22;74.17;99074.81;5031736;28;20029;-69
2022/07/26 01:31:07;;;;;;;19.65;13.68;;;;;;;20.18;74.35;99068.94;5051453;28;20025;-59
2022/07/26 01:33:33;;;;;;;23.17;17.15;;;;;;;20.18;74.53;99077.09;5051739;28;20111;-60
2022/07/26 01:35:59;;;;;;;15.07;13.05;;;;;;;20.16;74.21;99087.34;5052118;28;20033;-60
2022/07/26 01:38:26;;;;;;;21.15;16.10;;;;;;;20.13;74.28;99073.31;5051687;28;20031;-56
2022/07/26 01:40:51;;;;;;;15.77;13.25;;;;;;;20.10;74.45;99069.16;5047757;28;20075;-58
2022/07/26 01:43:17;;;;;;;13.38;11.35;;;;;;;20.15;74.31;99077.53;5031753;28;20030;-57
2022/07/26 01:45:42;;;;;;;21.95;15.23;;;;;;;20.19;74.49;99077.97;5031715;28;20030;-61
2022/07/26 01:48:08;;;;;;;16.40;12.88;;;;;;;20.20;74.29;99085.06;5031816;28;20049;-58
2022/07/26 01:50:35;;;;;;;14.73;11.82;;;;;;;20.22;74.21;99097.38;5031588;28;20123;-58
2022/07/26 01:53:00;;;;;;;19.13;13.30;;;;;;;20.24;74.11;99094.47;5031766;28;20039;-70
2022/07/26 01:55:26;;;;;;;15.00;11.75;;;;;;;20.26;74.10;99097.00;5039957;28;20520;-58
2022/07/26 01:57:52;;;;;;;14.30;11.20;;;;;;;20.29;73.99;99088.44;5046639;28;20033;-58
2022/07/26 02:00:18;;;;;;;12.98;11.23;;;;;;;20.30;74.20;99087.41;5031431;28;20071;-61
2022/07/26 02:02:43;;;;;;;12.88;11.52;;;;;;;20.29;73.95;99085.72;5032286;28;20061;-59
2022/07/26 02:05:09;;;;;;;13.10;11.27;;;;;;;20.32;73.99;99088.84;5031228;28;20045;-59
2022/07/26 02:07:40;;;;;;;12.82;11.50;;;;;;;20.42;73.97;99102.03;5031264;28;20385;-58
2022/07/26 02:10:07;;;;;;;12.88;10.15;;;;;;;20.42;73.63;99107.47;5031404;28;20059;-58
2022/07/26 02:12:33;;;;;;;11.05;9.85;;;;;;;20.43;73.59;99092.03;5047381;28;20025;-63
2022/07/26 02:14:58;;;;;;;14.70;10.23;;;;;;;20.45;73.60;99096.19;5051288;28;20120;-58
2022/07/26 02:17:24;;;;;;;19.17;12.75;;;;;;;20.51;73.49;99100.81;5051028;28;20029;-59
2022/07/26 02:19:51;;;;;;;13.98;12.50;;;;;;;20.55;73.19;99098.50;5030952;28;20513;-59
2022/07/26 02:22:18;;;;;;;14.07;12.25;;;;;;;20.62;73.24;99095.81;5030966;28;20080;-58
2022/07/26 02:24:46;;;;;;;16.73;14.10;;;;;;;20.69;73.01;99099.34;5031243;28;20031;-60
2022/07/26 02:27:11;;;;;;;16.42;13.43;;;;;;;20.72;72.84;99089.94;5031218;28;20053;-58
2022/07/26 02:29:37;;;;;;;14.45;11.63;;;;;;;20.83;72.54;99107.56;5049564;28;20068;-58
2022/07/26 02:32:03;;;;;;;16.67;11.98;;;;;;;20.90;71.87;99109.25;5051332;28;20024;-59
2022/07/26 02:34:28;;;;;;;18.73;13.55;;;;;;;21.01;71.32;99113.22;5050997;28;20074;-58
2022/07/26 02:36:54;;;;;;;14.38;12.20;;;;;;;21.10;71.43;99122.00;5050836;28;20040;-60
2022/07/26 02:39:19;;;;;;;14.15;11.60;;;;;;;21.15;71.24;99126.81;5034423;28;20037;-57
2022/07/26 02:41:46;;;;;;;12.45;10.88;;;;;;;21.19;70.96;99122.59;5031075;28;20064;-58
2022/07/26 02:44:11;;;;;;;14.13;12.57;;;;;;;21.22;70.83;99117.59;5038035;28;20475;-59
2022/07/26 02:46:37;;;;;;;15.10;11.75;;;;;;;21.26;70.33;99123.47;5050767;28;20120;-60
2022/07/26 02:49:03;;;;;;;13.90;12.48;;;;;;;21.32;70.09;99128.06;5050980;28;20029;-60
2022/07/26 02:51:28;;;;;;;14.73;12.60;;;;;;;21.40;69.99;99128.88;5048794;28;20048;-58
2022/07/26 02:53:54;;;;;;;14.63;13.18;;;;;;;21.48;69.84;99134.13;5050799;28;20040;-58
2022/07/26 02:56:20;;;;;;;14.38;12.50;;;;;;;21.51;69.22;99130.97;5050691;28;20103;-57
2022/07/26 02:58:45;;;;;;;13.55;12.00;;;;;;;21.56;69.31;99138.47;5039129;28;20033;-60
2022/07/26 03:01:11;;;;;;;13.55;11.57;;;;;;;21.60;69.39;99137.03;5034831;28;20029;-57
2022/07/26 03:03:37;;;;;;;13.38;11.63;;;;;;;21.56;68.86;99119.41;5034546;28;20061;-57
2022/07/26 03:06:02;;;;;;;16.33;12.80;;;;;;;21.74;68.59;99137.84;5034520;28;20033;-58
2022/07/26 03:08:28;;;;;;;16.75;12.40;;;;;;;21.86;67.98;99144.28;5042203;28;20021;-59
2022/07/26 03:10:53;;;;;;;17.40;11.73;;;;;;;21.94;67.64;99146.81;5054600;28;20376;-58
2022/07/26 03:13:19;;;;;;;13.30;11.85;;;;;;;21.96;67.54;99141.13;5054487;28;20132;-60
2022/07/26 03:15:44;;;;;;;15.68;11.90;;;;;;;22.01;67.50;99140.47;5054047;28;20029;-57
2022/07/26 03:18:10;;;;;;;14.85;13.25;;;;;;;22.09;67.25;99148.41;5052547;28;20033;-60
2022/07/26 03:20:35;;;;;;;16.30;13.32;;;;;;;22.15;67.19;99147.53;5054565;28;20041;-68
2022/07/26 03:23:01;;;;;;;14.23;12.77;;;;;;;22.25;66.84;99146.25;5054444;28;20427;-60
2022/07/26 03:25:26;;;;;;;12.90;11.48;;;;;;;22.37;66.49;99155.41;5053989;28;20044;-61
2022/07/26 03:27:58;;;;;;;13.60;11.98;;;;;;;22.58;66.06;99156.16;5053666;28;20032;-57
2022/07/26 03:30:24;;;;;;;17.10;13.00;;;;;;;22.73;65.09;99151.25;5046305;28;20041;-59
2022/07/26 03:32:50;;;;;;;14.75;12.23;;;;;;;22.99;64.45;99143.06;5052124;28;20411;-59
2022/07/26 03:35:15;;;;;;;13.93;12.05;;;;;;;23.55;62.90;99141.31;5053807;28;20031;-59
2022/07/26 03:37:41;;;;;;;13.15;11.40;;;;;;;24.18;61.23;99152.19;5050177;28;20091;-59
2022/07/26 03:40:07;;;;;;;14.38;12.52;;;;;;;24.82;58.91;99161.84;5034096;28;20438;-59
2022/07/26 03:42:34;;;;;;;13.48;12.07;;;;;;;25.40;56.89;99143.00;5049148;28;20033;-60
2022/07/26 03:44:59;;;;;;;15.82;11.75;;;;;;;25.90;55.42;99144.41;5053771;28;20446;-58
2022/07/26 03:47:25;;;;;;;12.95;11.40;;;;;;;26.45;53.39;99145.81;5053497;28;20021;-60
2022/07/26 03:49:50;;;;;;;12.80;10.93;;;;;;;27.17;51.59;99134.41;5043314;28;20044;-58
2022/07/26 03:52:16;;;;;;;13.13;11.00;;;;;;;27.88;49.47;99133.81;5033599;28;20405;-57
2022/07/26 03:54:41;;;;;;;13.75;11.02;;;;;;;28.58;47.54;99136.00;5033267;28;20033;-61
2022/07/26 03:57:07;;;;;;;18.27;11.02;;;;;;;29.12;46.28;99144.47;5033605;28;20061;-60
2022/07/26 03:59:33;;;;;;;12.60;11.30;;;;;;;29.44;45.20;99144.47;5052186;28;20068;-60
2022/07/26 04:01:58;;;;;;;14.13;11.45;;;;;;;29.81;44.25;99142.72;5053324;28;20466;-58
2022/07/26 04:04:24;;;;;;;12.77;11.18;;;;;;;30.20;43.30;99139.63;5053446;28;20045;-58
2022/07/26 04:06:49;;;;;;;12.70;10.45;;;;;;;30.53;42.33;99150.47;5053735;28;20120;-57
2022/07/26 04:09:15;;;;;;;10.88;9.80;;;;;;;31.06;41.47;99147.50;5036866;28;20040;-60
2022/07/26 04:11:42;;;;;;;11.98;9.77;;;;;;;31.58;40.20;99150.22;5032391;28;20025;-60
2022/07/26 04:14:08;;;;;;;13.90;9.98;;;;;;;31.89;39.05;99152.09;5050254;28;20373;-61
2022/07/26 04:16:33;;;;;;;15.52;10.50;;;;;;;32.19;38.33;99144.75;5052830;28;20094;-60
2022/07/26 04:18:59;;;;;;;11.52;10.13;;;;;;;32.78;37.16;99150.53;5038609;28;20156;-62
2022/07/26 04:21:24;;;;;;;14.38;9.57;;;;;;;33.33;36.51;99144.81;5033505;28;20382;-60
2022/07/26 04:23:50;;;;;;;13.45;10.70;;;;;;;33.69;35.66;99151.13;5033223;28;20037;-60
2022/07/26 04:26:15;;;;;;;11.25;10.02;;;;;;;34.27;34.45;99141.03;5033201;28;20025;-60
2022/07/26 04:28:41;;;;;;;9.90;8.90;;;;;;;34.93;32.97;99135.56;5044244;28;20025;-61
2022/07/26 04:31:07;;;;;;;11.23;9.40;;;;;;;35.34;32.18;99143.25;5052906;28;20036;-60
2022/07/26 04:33:33;;;;;;;9.35;8.55;;;;;;;35.79;30.93;99141.88;5052955;28;20037;-60
2022/07/26 04:35:59;;;;;;;9.98;8.93;;;;;;;36.19;30.09;99139.38;5052035;28;20033;-60
2022/07/26 04:38:25;;;;;;;10.52;8.75;;;;;;;36.67;29.35;99126.06;5042504;28;20398;-61
2022/07/26 04:40:51;;;;;;;9.57;8.50;;;;;;;36.98;28.96;99139.22;5033688;28;20025;-60
2022/07/26 04:43:18;;;;;;;10.38;8.05;;;;;;;37.71;28.18;99149.34;5032365;28;20103;-59
2022/07/26 04:45:47;;;;;;;8.75;7.93;;;;;;;38.15;27.62;99135.53;5032928;28;20537;-60
2022/07/26 04:48:13;;;;;;;8.65;7.82;;;;;;;38.53;26.08;99155.66;5040284;28;20477;-60
2022/07/26 04:50:39;;;;;;;9.32;8.52;;;;;;;38.73;25.69;99149.41;5052871;28;20067;-59
2022/07/26 04:53:05;;;;;;;8.50;7.65;;;;;;;39.16;24.99;99144.09;5052294;28;20056;-59
2022/07/26 04:55:30;;;;;;;8.45;7.65;;;;;;;39.66;24.21;99148.22;5052829;28;20349;-59
2022/07/26 04:57:57;;;;;;;8.55;7.82;;;;;;;40.08;23.96;99146.72;5050813;28;20519;-59
2022/07/26 05:00:23;;;;;;;8.38;7.68;;;;;;;40.46;23.54;99154.25;5052392;28;20082;-60
2022/07/26 05:02:54;;;;;;;8.90;8.00;;;;;;;40.39;23.14;99153.94;5052484;28;20090;-59
2022/07/26 05:05:21;;;;;;;8.60;7.90;;;;;;;40.32;23.23;99155.31;5052702;28;20037;-60
2022/07/26 05:07:50;;;;;;;7.82;7.22;;;;;;;40.74;22.42;99157.31;5048856;28;20038;-64
2022/07/26 05:10:17;;;;;;;8.32;7.63;;;;;;;41.05;22.20;99146.78;5041516;28;20048;-59
2022/07/26 05:12:45;;;;;;;9.00;8.10;;;;;;;41.33;22.00;99149.81;5050943;28;20028;-66
2022/07/26 05:15:11;;;;;;;8.63;7.85;;;;;;;41.18;22.03;99144.88;5052703;28;20066;-60
2022/07/26 05:17:38;;;;;;;8.15;7.55;;;;;;;41.35;22.37;99152.25;5052295;28;20116;-59
2022/07/26 05:20:06;;;;;;;8.70;7.88;;;;;;;42.04;21.13;99157.41;5048998;28;20139;-61
2022/07/26 05:22:33;;;;;;;9.55;8.75;;;;;;;42.84;20.15;99159.78;5040330;28;20350;-58
2022/07/26 05:24:58;;;;;;;10.23;9.32;;;;;;;42.94;20.07;99150.03;5052177;28;20025;-59
2022/07/26 05:27:24;;;;;;;9.55;8.60;;;;;;;43.04;20.11;99138.22;5050515;28;20044;-61
2022/07/26 05:29:49;;;;;;;9.38;8.40;;;;;;;43.62;19.51;99151.03;5043043;28;20033;-58
2022/07/26 05:32:15;;;;;;;9.60;8.63;;;;;;;43.79;18.91;99161.13;5031911;28;20033;-58
2022/07/26 05:34:41;;;;;;;9.80;8.90;;;;;;;44.15;18.85;99161.19;5032468;28;20108;-58
2022/07/26 05:37:06;;;;;;;9.57;8.70;;;;;;;44.38;18.26;99164.13;5031697;28;20033;-59
2022/07/26 05:39:32;;;;;;;9.13;8.30;;;;;;;44.90;17.90;99169.66;5035373;28;20366;-59
2022/07/26 05:41:57;;;;;;;8.57;7.88;;;;;;;45.39;17.41;99156.09;5051443;28;20036;-58
2022/07/26 05:44:23;;;;;;;9.23;8.48;;;;;;;45.33;17.12;99163.22;5050237;28;20033;-59
2022/07/26 05:46:49;;;;;;;9.10;8.30;;;;;;;45.63;17.33;99162.53;5051536;28;20090;-58
2022/07/26 05:49:15;;;;;;;8.48;7.88;;;;;;;45.87;16.81;99142.34;5035244;28;20037;-69
2022/07/26 05:51:40;;;;;;;9.38;8.57;;;;;;;46.29;16.25;99159.53;5031710;28;20474;-60
2022/07/26 05:54:06;;;;;;;9.60;8.45;;;;;;;46.40;16.28;99156.84;5035811;28;20044;-60
2022/07/26 05:56:31;;;;;;;8.48;7.68;;;;;;;46.89;16.10;99155.06;5050732;28;20037;-59
2022/07/26 05:58:57;;;;;;;10.13;9.10;;;;;;;47.17;15.22;99150.91;5051110;28;20116;-59
2022/07/26 06:01:22;;;;;;;8.73;7.97;;;;;;;47.56;15.25;99150.47;5050378;28;20108;-60
2022/07/26 06:03:48;;;;;;;9.52;8.60;;;;;;;47.89;14.75;99156.41;5051332;28;20135;-59
2022/07/26 06:06:14;;;;;;;9.48;8.23;;;;;;;48.30;14.70;99146.94;5030840;28;20391;-59
2022/07/26 06:08:39;;;;;;;9.27;8.30;;;;;;;48.42;14.51;99143.78;5041832;28;20064;-59
2022/07/26 06:11:05;;;;;;;9.10;8.30;;;;;;;48.64;13.99;99151.59;5048713;28;20087;-59
2022/07/26 06:13:31;;;;;;;8.70;7.90;;;;;;;48.71;13.79;99129.66;5038975;28;20061;-61
2022/07/26 06:15:56;;;;;;;8.63;7.93;;;;;;;48.97;13.58;99156.16;5048905;28;20455;-60
2022/07/26 06:18:22;;;;;;;7.60;7.00;;;;;;;49.27;13.23;99152.16;5050530;28;20025;-60
2022/07/26 06:20:48;;;;;;;8.07;7.43;;;;;;;49.48;13.01;99146.88;5048363;28;20112;-60
2022/07/26 06:23:14;;;;;;;8.30;7.50;;;;;;;49.70;13.21;99128.63;5031618;28;20033;-58
2022/07/26 06:25:40;;;;;;;8.02;7.43;;;;;;;50.26;12.25;99141.56;5039661;28;20044;-61
2022/07/26 06:28:08;;;;;;;7.72;6.95;;;;;;;50.64;12.33;99150.34;5050521;28;20452;-63
2022/07/26 06:30:36;;;;;;;7.65;6.95;;;;;;;50.95;11.97;99153.47;5049506;28;20064;-60
2022/07/26 06:33:01;;;;;;;7.78;7.18;;;;;;;51.21;11.65;99154.09;5050536;28;20496;-63
2022/07/26 06:35:29;;;;;;;7.93;6.95;;;;;;;51.28;11.59;99158.94;5044905;28;20057;-62
2022/07/26 06:37:55;;;;;;;7.55;6.95;;;;;;;51.31;10.96;99151.59;5028841;28;20034;-61
2022/07/26 06:40:21;;;;;;;7.85;7.05;;;;;;;51.43;11.20;99151.09;5040639;28;20087;-60
2022/07/26 06:42:46;;;;;;;7.60;7.00;;;;;;;51.55;11.23;99144.88;5050301;28;20021;-64
2022/07/26 06:45:12;;;;;;;8.75;7.43;;;;;;;51.62;11.22;99143.22;5041088;28;20040;-63
2022/07/26 06:47:37;;;;;;;7.50;6.90;;;;;;;52.16;10.64;99131.25;5038530;28;20129;-61
2022/07/26 06:50:03;;;;;;;7.53;7.00;;;;;;;52.47;10.59;99139.06;5039209;28;20461;-61
2022/07/26 06:52:31;;;;;;;7.80;7.20;;;;;;;52.48;10.30;99120.69;5048651;28;20579;-61
2022/07/26 06:54:58;;;;;;;7.25;6.65;;;;;;;52.96;10.38;99136.75;5049364;28;20117;-61
2022/07/26 06:57:24;;;;;;;8.52;7.82;;;;;;;53.15;9.91;99131.59;5049425;28;20033;-60
2022/07/26 06:59:49;;;;;;;9.65;7.90;;;;;;;53.46;9.86;99128.63;5050591;28;20032;-61
2022/07/26 07:02:15;;;;;;;8.07;7.28;;;;;;;53.79;9.58;99128.91;5050893;28;20078;-62
2022/07/26 07:04:41;;;;;;;7.95;7.35;;;;;;;54.01;9.60;99128.44;5049941;28;20533;-62
2022/07/26 07:07:07;;;;;;;7.75;7.15;;;;;;;53.95;9.67;99130.22;5047672;28;20037;-62
2022/07/26 07:09:33;;;;;;;6.90;6.25;;;;;;;53.82;8.72;99115.75;5048748;28;20486;-67
2022/07/26 07:12:00;;;;;;;8.15;7.53;;;;;;;54.25;8.95;99116.94;5050357;28;20051;-63
2022/07/26 07:14:26;;;;;;;7.18;6.68;;;;;;;54.44;8.72;99120.25;5050092;28;20025;-65
2022/07/26 07:16:51;;;;;;;7.60;7.10;;;;;;;55.11;8.56;99116.28;5049515;28;20414;-64
2022/07/26 07:19:16;;;;;;;7.97;7.37;;;;;;;55.15;8.33;99099.00;5050662;28;20025;-70
2022/07/26 07:21:42;;;;;;;8.35;7.75;;;;;;;54.79;8.64;99123.59;5050278;28;20246;-65
2022/07/26 07:24:08;;;;;;;7.50;7.00;;;;;;;55.36;8.12;99120.59;5035552;28;20038;-65
2022/07/26 07:26:33;;;;;;;8.05;7.40;;;;;;;55.65;7.22;99128.44;5044455;28;20104;-63
2022/07/26 07:28:59;;;;;;;7.80;7.30;;;;;;;55.73;6.95;99120.47;5043820;28;20038;-65
2022/07/26 07:31:25;;;;;;;7.25;6.75;;;;;;;55.90;7.31;99119.16;5046640;28;20374;-65
2022/07/26 07:33:50;;;;;;;7.80;7.10;;;;;;;56.14;6.80;99109.50;5043978;28;20069;-63
2022/07/26 07:36:16;;;;;;;8.43;7.78;;;;;;;56.48;7.35;99111.75;5030382;28;20138;-65
2022/07/26 07:38:44;;;;;;;8.43;7.70;;;;;;;56.71;7.10;99126.28;5029858;28;20041;-66
2022/07/26 07:41:09;;;;;;;8.73;8.05;;;;;;;56.20;6.94;99122.03;5041014;28;20374;-62
2022/07/26 07:43:34;;;;;;;8.73;8.02;;;;;;;56.17;7.39;99123.75;5045425;28;20050;-65
2022/07/26 07:46:00;;;;;;;8.10;7.50;;;;;;;56.85;7.27;99116.41;5033204;28;20037;-62
2022/07/26 07:48:25;;;;;;;9.35;8.55;;;;;;;57.16;6.75;99102.25;5052040;28;20274;-61
2022/07/26 07:50:51;;;;;;;9.23;8.52;;;;;;;57.68;6.55;99119.41;5053272;28;20029;-61
2022/07/26 07:53:16;;;;;;;8.73;8.07;;;;;;;57.49;5.92;99110.56;5048350;28;20068;-62
2022/07/26 07:55:42;;;;;;;9.20;8.60;;;;;;;57.38;6.54;99115.88;5039904;28;20246;-62
2022/07/26 07:58:07;;;;;;;9.17;8.57;;;;;;;57.20;6.77;99102.91;5052453;28;20158;-62
2022/07/26 08:00:33;;;;;;;9.88;9.07;;;;;;;56.77;7.14;99116.63;5053003;28;20327;-61
2022/07/26 08:02:58;;;;;;;9.82;9.02;;;;;;;56.00;7.35;99111.53;5034674;28;20100;-61
2022/07/26 08:05:24;;;;;;;8.85;8.25;;;;;;;55.44;7.81;99110.53;5032831;28;20068;-61
2022/07/26 08:07:49;;;;;;;8.70;7.90;;;;;;;54.99;7.70;99105.50;5034274;28;20041;-65
2022/07/26 08:10:15;;;;;;;8.33;7.53;;;;;;;54.43;8.13;99095.72;5051508;28;20465;-65
2022/07/26 08:12:41;;;;;;;7.43;6.82;;;;;;;53.99;8.66;99107.25;5052625;28;20312;-62
2022/07/26 08:15:08;;;;;;;8.27;7.70;;;;;;;53.83;8.52;99123.09;5052776;28;20036;-62
2022/07/26 08:17:34;;;;;;;7.75;7.15;;;;;;;53.34;8.60;99112.09;5040560;28;20524;-62
2022/07/26 08:19:59;;;;;;;7.70;7.10;;;;;;;52.94;9.14;99113.50;5048490;28;20049;-61
2022/07/26 08:22:25;;;;;;;7.75;7.15;;;;;;;52.28;9.80;99115.59;5049666;28;20471;-64
2022/07/26 08:24:51;;;;;;;7.72;7.13;;;;;;;50.87;10.47;99105.47;5053111;28;20056;-63
2022/07/26 08:27:17;;;;;;;6.45;6.05;;;;;;;48.09;12.42;99105.06;5052128;28;20025;-62
2022/07/26 08:29:42;;;;;;;7.05;6.20;;;;;;;45.37;14.77;99101.97;5052711;28;20076;-65
2022/07/26 08:32:08;;;;;;;7.07;6.47;;;;;;;43.09;17.14;99094.91;5052061;28;20025;-63
2022/07/26 08:34:34;;;;;;;7.40;6.78;;;;;;;41.17;18.81;99087.06;5052225;28;20036;-63
2022/07/26 08:36:59;;;;;;;7.95;7.18;;;;;;;39.72;20.82;99095.63;5042619;28;20079;-64
2022/07/26 08:39:25;;;;;;;7.78;7.07;;;;;;;38.71;22.15;99106.94;5032660;28;20037;-63
2022/07/26 08:41:50;;;;;;;8.85;7.53;;;;;;;37.80;23.20;99110.28;5052265;28;20087;-63
2022/07/26 08:44:16;;;;;;;8.82;8.02;;;;;;;37.18;24.63;99112.78;5050643;28;20428;-64
2022/07/26 08:46:41;;;;;;;10.63;8.63;;;;;;;36.23;25.16;99106.13;5038675;28;20931;-64
2022/07/26 08:49:09;;;;;;;9.13;8.20;;;;;;;35.66;26.25;99126.81;5032487;28;20378;-64
2022/07/26 08:51:42;;;;;;;8.43;7.72;;;;;;;35.08;26.95;99097.56;5030864;28;20347;-69
2022/07/26 08:54:08;;;;;;;9.07;8.38;;;;;;;34.88;27.82;99121.75;5046823;28;20022;-71
2022/07/26 08:56:36;;;;;;;9.23;8.35;;;;;;;34.58;27.79;99110.03;5044016;28;20029;-69
2022/07/26 08:59:13;;;;;;;8.98;8.02;;;;;;;34.30;28.00;99121.78;5045910;28;20067;-70
2022/07/26 09:01:58;;;;;;;9.68;8.75;;;;;;;34.12;27.89;99117.88;5051584;28;20427;-70
2022/07/26 09:04:26;;;;;;;8.90;8.10;;;;;;;33.79;29.31;99124.09;5038419;28;20057;-70
2022/07/26 09:07:00;;;;;;;9.00;8.20;;;;;;;33.74;29.62;99120.53;5033875;28;20057;-71
2022/07/26 09:09:26;;;;;;;9.45;8.63;;;;;;;33.60;29.54;99114.88;5039747;28;20033;-70
2022/07/26 09:11:53;;;;;;;8.68;7.95;;;;;;;33.68;29.76;99118.94;5050251;28;20107;-69
2022/07/26 09:14:21;;;;;;;8.88;8.07;;;;;;;33.72;29.83;99120.00;5051030;28;20041;-74
2022/07/26 09:16:58;;;;;;;12.00;8.63;;;;;;;33.62;29.22;99105.16;5065422;28;20528;-73
2022/07/26 09:19:25;;;;;;;9.50;8.68;;;;;;;33.56;30.17;99134.09;5071810;28;20518;-66
2022/07/26 09:21:51;;;;;;;9.77;8.70;;;;;;;33.67;29.72;99131.19;5035935;28;20065;-65
2022/07/26 09:24:30;;;;;;;10.95;8.93;;;;;;;34.09;29.21;99132.38;5039412;28;20501;-70
2022/07/26 09:26:57;;;;;;;9.35;8.38;;;;;;;34.22;29.36;99131.59;5046710;28;20098;-71
2022/07/26 09:29:22;;;;;;;9.43;8.63;;;;;;;34.33;29.18;99123.16;5050518;28;20057;-66
2022/07/26 09:31:48;;;;;;;9.90;9.00;;;;;;;34.21;28.99;99123.59;5051325;28;20104;-65
2022/07/26 09:34:24;;;;;;;11.88;8.88;;;;;;;34.06;29.20;99127.41;5050034;28;20037;-64
2022/07/26 09:36:53;;;;;;;11.93;9.13;;;;;;;33.76;30.05;99138.56;5041557;28;20040;-65
2022/07/26 09:39:19;;;;;;;10.05;9.25;;;;;;;33.64;29.68;99127.88;5031431;28;20109;-64
2022/07/26 09:41:45;;;;;;;10.20;9.25;;;;;;;33.64;30.02;99116.78;5036223;28;20024;-67
2022/07/26 09:44:22;;;;;;;10.05;9.07;;;;;;;33.86;29.28;99126.50;5051135;28;20025;-66
2022/07/26 09:46:56;;;;;;;9.23;8.43;;;;;;;33.84;30.24;99130.69;5049961;28;20091;-66
2022/07/26 09:49:23;;;;;;;10.23;9.05;;;;;;;33.61;30.50;99113.75;5051896;28;20037;-66
2022/07/26 09:51:53;;;;;;;10.52;9.45;;;;;;;33.49;30.68;99117.78;5031897;28;20224;-70
2022/07/26 09:54:29;;;;;;;10.05;9.15;;;;;;;33.41;31.10;99117.56;5049838;28;20504;-69
2022/07/26 09:56:55;;;;;;;10.00;9.02;;;;;;;33.40;30.84;99121.44;5035248;28;20049;-76
2022/07/26 09:59:23;;;;;;;10.75;9.65;;;;;;;33.48;30.80;99123.59;5033419;28;20072;-65
2022/07/26 10:01:49;;;;;;;9.75;8.95;;;;;;;33.50;30.24;99118.59;5034034;28;20553;-64
2022/07/26 10:04:15;;;;;;;9.43;8.63;;;;;;;33.52;30.17;99121.09;5038158;28;20056;-66
2022/07/26 10:06:42;;;;;;;9.15;8.40;;;;;;;33.54;30.31;99119.69;5044454;28;20045;-66
2022/07/26 10:09:09;;;;;;;9.93;9.07;;;;;;;33.40;30.80;99124.22;5036026;28;20041;-65
2022/07/26 10:11:40;;;;;;;11.65;9.45;;;;;;;33.21;30.90;99114.72;5045113;28;20435;-63
2022/07/26 10:14:41;;;;;;;9.63;8.73;;;;;;;33.25;30.76;99114.94;5030223;28;20037;-67
2022/07/26 10:17:25;;;;;;;10.40;9.40;;;;;;;33.12;30.98;99113.66;5031449;28;20111;-73
2022/07/26 10:19:54;;;;;;;10.80;9.38;;;;;;;32.77;32.25;99116.44;5039464;28;20463;-70
2022/07/26 10:22:46;;;;;;;9.27;8.50;;;;;;;32.65;32.14;99099.38;5046244;28;20021;-67
2022/07/26 10:25:17;;;;;;;10.50;9.52;;;;;;;32.77;31.48;99121.16;5029513;28;20045;-67
2022/07/26 10:27:44;;;;;;;9.82;8.93;;;;;;;32.89;32.41;99116.09;5037948;28;20045;-67
2022/07/26 10:30:18;;;;;;;10.40;9.32;;;;;;;33.32;31.29;99118.22;5049191;28;20036;-67
2022/07/26 10:32:59;;;;;;;10.07;9.15;;;;;;;33.61;30.51;99109.03;5048687;28;20528;-65
2022/07/26 10:35:43;;;;;;;10.07;9.23;;;;;;;33.77;30.06;99108.88;5033320;28;20067;-67
2022/07/26 10:38:26;;;;;;;10.02;9.13;;;;;;;33.97;29.70;99115.28;5034753;28;20037;-68
2022/07/26 10:40:59;;;;;;;9.90;9.02;;;;;;;33.91;29.82;99108.97;5041628;28;20447;-65
2022/07/26 10:43:26;;;;;;;10.15;9.18;;;;;;;33.77;29.93;99103.31;5043831;28;20470;-64
2022/07/26 10:46:19;;;;;;;9.75;8.95;;;;;;;33.91;29.62;99112.56;5049676;28;20025;-67
2022/07/26 10:49:02;;;;;;;9.30;8.60;;;;;;;33.98;29.63;99097.50;5048515;28;20041;-74
2022/07/26 10:51:32;;;;;;;9.77;8.77;;;;;;;34.06;29.08;99103.22;5032498;28;20029;-72
2022/07/26 10:53:59;;;;;;;11.13;9.25;;;;;;;34.22;29.68;99089.13;5031412;28;20477;-68
2022/07/26 10:56:26;;;;;;;10.30;9.50;;;;;;;34.32;29.25;99090.94;5040185;28;20445;-66
2022/07/26 10:58:51;;;;;;;9.88;9.07;;;;;;;34.26;28.98;99087.41;5048329;28;20044;-67
2022/07/26 11:01:17;;;;;;;10.68;9.68;;;;;;;34.15;29.57;99086.72;5049348;28;20033;-66
2022/07/26 11:03:42;;;;;;;10.20;9.23;;;;;;;33.97;29.67;99082.81;5050412;28;20049;-66
2022/07/26 11:06:18;;;;;;;10.68;9.13;;;;;;;33.99;29.07;99086.13;5050328;28;20060;-67
2022/07/26 11:08:46;;;;;;;10.40;9.38;;;;;;;33.77;29.94;99103.31;5050418;28;20037;-66
2022/07/26 11:11:13;;;;;;;10.75;9.65;;;;;;;33.45;30.69;99080.66;5050789;28;20060;-66
2022/07/26 11:13:39;;;;;;;11.13;9.00;;;;;;;33.19;31.22;99082.81;5050514;28;20123;-65
2022/07/26 11:16:07;;;;;;;9.90;8.90;;;;;;;32.82;31.35;99089.81;5050352;28;20080;-66
2022/07/26 11:18:36;;;;;;;11.07;10.13;;;;;;;32.55;32.17;99096.66;5050430;28;20028;-69
2022/07/26 11:21:13;;;;;;;11.38;10.18;;;;;;;32.35;32.29;99087.41;5051584;28;20029;-66
2022/07/26 11:23:42;;;;;;;10.52;9.57;;;;;;;32.08;33.03;99088.63;5053146;28;20061;-66
2022/07/26 11:26:09;;;;;;;10.23;9.23;;;;;;;31.99;33.03;99080.09;5054173;28;20059;-66